Time;durP1;ratioP1;P1;durP2;ratioP2;P2;SDS_P1;SDS_P2;PMS_P1;PMS_P2;Temp;Humidity;BMP_temperature;BMP_pressure;BME280_temperature;BME280_humidity;BME280_pressure;Samples;Min_cycle;Max_cycle;Signal;HPM_P1;HPM_P2
2021/12/14 00:00:32;;;;;;;;;;;3.20;99.90;;;;;;5079702;28;20036;-75
2021/12/14 00:02:58;;;;;;;;;;;3.20;99.90;;;;;;5079958;28;19959;-76
2021/12/14 00:05:25;;;;;;;;;;;3.20;99.90;;;;;;5080985;28;19942;-76
2021/12/14 00:07:51;;;;;;;;;;;3.20;99.90;;;;;;5081028;28;19912;-75
2021/12/14 00:13:17;;;;;;;;;;;3.20;99.90;;;;;;5079948;28;20053;-75
2021/12/14 00:15:43;;;;;;;;;;;3.20;99.90;;;;;;5079653;28;19908;-75
2021/12/14 00:18:13;;;;;;;;;;;3.20;99.90;;;;;;5079285;28;20031;-75
2021/12/14 00:21:09;;;;;;;;;;;3.20;99.90;;;;;;5071106;28;20388;-75
2021/12/14 00:26:21;;;;;;;;;;;3.20;99.90;;;;;;5080539;28;19920;-75
2021/12/14 00:28:50;;;;;;;;;;;3.20;99.90;;;;;;5080795;28;19908;-75
2021/12/14 00:31:17;;;;;;;;;;;3.30;99.90;;;;;;5080608;28;20019;-75
2021/12/14 00:33:44;;;;;;;;;;;3.40;99.90;;;;;;5080554;28;19908;-75
2021/12/14 00:36:12;;;;;;;;;;;3.40;99.90;;;;;;5080386;28;19912;-76
2021/12/14 00:38:39;;;;;;;;;;;3.40;99.90;;;;;;5080559;28;20431;-75
2021/12/14 00:41:11;;;;;;;;;;;3.40;99.90;;;;;;5079959;28;19912;-75
2021/12/14 00:43:36;;;;;;;;;;;3.40;99.90;;;;;;5080439;28;20327;-75
2021/12/14 00:46:02;;;;;;;;;;;3.30;99.90;;;;;;5080234;28;19912;-75
2021/12/14 00:48:28;;;;;;;;;;;3.40;99.90;;;;;;5079057;28;19961;-73
2021/12/14 00:50:55;;;;;;;;;;;3.30;99.90;;;;;;5080157;28;19908;-75
2021/12/14 00:53:21;;;;;;;;;;;3.30;99.90;;;;;;5080308;28;19962;-75
2021/12/14 00:55:48;;;;;;;;;;;3.20;99.90;;;;;;5079757;28;19961;-76
2021/12/14 00:58:14;;;;;;;;;;;3.10;99.90;;;;;;5068440;28;19909;-75
2021/12/14 01:00:42;;;;;;;;;;;3.10;99.90;;;;;;5059935;28;19932;-76
2021/12/14 01:03:08;;;;;;;;;;;3.00;99.90;;;;;;5058704;28;19909;-76
2021/12/14 01:05:36;;;;;;;;;;;2.90;99.90;;;;;;5058850;28;19909;-76
2021/12/14 01:08:03;;;;;;;;;;;2.80;99.90;;;;;;5076010;28;19955;-76
2021/12/14 01:10:31;;;;;;;;;;;2.80;99.90;;;;;;5079496;28;19909;-76
2021/12/14 01:13:02;;;;;;;;;;;2.80;99.90;;;;;;5078451;28;19916;-76
2021/12/14 01:21:18;;;;;;;;;;;2.70;99.90;;;;;;5066198;28;19921;-76
2021/12/14 01:23:45;;;;;;;;;;;2.70;99.90;;;;;;5058355;28;19909;-75
2021/12/14 01:26:13;;;;;;;;;;;2.60;99.90;;;;;;5059186;28;19909;-75
2021/12/14 01:28:41;;;;;;;;;;;2.60;99.90;;;;;;5059618;28;20265;-75
2021/12/14 01:31:20;;;;;;;;;;;2.50;99.90;;;;;;5057908;28;19944;-75
2021/12/14 01:33:48;;;;;;;;;;;2.40;99.90;;;;;;5059236;28;19908;-75
2021/12/14 01:36:36;;;;;;;;;;;2.40;99.90;;;;;;5059291;28;19909;-76
2021/12/14 01:41:43;;;;;;;;;;;2.30;99.90;;;;;;5059142;28;19912;-75
2021/12/14 01:44:09;;;;;;;;;;;2.20;99.90;;;;;;5059123;28;19916;-75
2021/12/14 01:46:38;;;;;;;;;;;2.10;99.90;;;;;;5059263;28;19909;-75
2021/12/14 01:49:06;;;;;;;;;;;2.10;99.90;;;;;;5059035;28;20292;-75
2021/12/14 01:51:33;;;;;;;;;;;2.10;99.90;;;;;;5059362;28;20000;-75
2021/12/14 01:53:59;;;;;;;;;;;2.10;99.90;;;;;;5058882;28;19909;-76
2021/12/14 01:56:26;;;;;;;;;;;2.00;99.90;;;;;;5058777;28;20321;-75
2021/12/14 01:59:14;;;;;;;;;;;2.00;99.90;;;;;;5057563;28;19917;-75
2021/12/14 02:01:53;;;;;;;;;;;1.90;99.90;;;;;;5057349;28;19913;-75
2021/12/14 02:04:20;;;;;;;;;;;1.90;99.90;;;;;;5057597;28;19908;-75
2021/12/14 02:06:52;;;;;;;;;;;1.90;99.90;;;;;;5058731;28;19955;-75
2021/12/14 02:09:18;;;;;;;;;;;1.90;99.90;;;;;;5057453;28;20265;-75
2021/12/14 02:11:54;;;;;;;;;;;1.90;99.90;;;;;;5060322;28;19931;-75
2021/12/14 02:14:20;;;;;;;;;;;2.00;99.90;;;;;;5078740;28;19936;-75
2021/12/14 02:16:50;;;;;;;;;;;2.00;99.90;;;;;;5077311;28;19909;-75
2021/12/14 02:19:16;;;;;;;;;;;2.20;99.90;;;;;;5077049;28;19920;-75
2021/12/14 02:21:42;;;;;;;;;;;2.30;99.90;;;;;;5058577;28;19912;-75
2021/12/14 02:24:09;;;;;;;;;;;2.40;99.90;;;;;;5058408;28;19915;-75
2021/12/14 02:26:35;;;;;;;;;;;2.40;99.90;;;;;;5058069;28;19908;-75
2021/12/14 02:29:03;;;;;;;;;;;2.50;99.90;;;;;;5058399;28;20349;-75
2021/12/14 02:31:30;;;;;;;;;;;2.50;99.90;;;;;;5058224;28;20407;-75
2021/12/14 02:33:56;;;;;;;;;;;2.50;99.90;;;;;;5058398;28;19934;-75
2021/12/14 02:36:27;;;;;;;;;;;2.60;99.90;;;;;;5056879;28;19909;-75
2021/12/14 02:39:04;;;;;;;;;;;2.60;99.90;;;;;;5056968;28;19909;-73
2021/12/14 02:41:30;;;;;;;;;;;2.50;99.90;;;;;;5057960;28;19917;-74
2021/12/14 02:43:57;;;;;;;;;;;2.60;99.90;;;;;;5066070;28;19908;-73
2021/12/14 02:46:22;;;;;;;;;;;2.50;99.90;;;;;;5058147;28;19912;-75
2021/12/14 02:48:50;;;;;;;;;;;2.50;99.90;;;;;;5056668;28;19955;-75
2021/12/14 02:51:27;;;;;;;;;;;2.60;99.90;;;;;;5056810;28;20360;-75
2021/12/14 02:53:55;;;;;;;;;;;2.60;99.90;;;;;;5056552;28;19996;-75
2021/12/14 02:56:24;;;;;;;;;;;2.60;99.90;;;;;;5057604;28;19909;-75
2021/12/14 02:58:54;;;;;;;;;;;2.70;99.90;;;;;;5057832;28;19909;-76
2021/12/14 03:01:20;;;;;;;;;;;2.70;99.90;;;;;;5058087;28;19912;-76
2021/12/14 03:03:45;;;;;;;;;;;2.80;99.90;;;;;;5057687;28;19908;-76
2021/12/14 03:06:16;;;;;;;;;;;2.80;99.90;;;;;;5057910;28;19909;-74
2021/12/14 03:08:48;;;;;;;;;;;2.80;99.90;;;;;;5057592;28;20351;-76
2021/12/14 03:11:13;;;;;;;;;;;2.80;99.90;;;;;;5056157;28;19913;-74
2021/12/14 03:13:44;;;;;;;;;;;2.70;99.90;;;;;;5076724;28;19912;-75
2021/12/14 03:16:13;;;;;;;;;;;2.70;99.90;;;;;;5076416;28;20398;-76
2021/12/14 03:18:42;;;;;;;;;;;2.70;99.90;;;;;;5076009;28;19921;-76
2021/12/14 03:21:09;;;;;;;;;;;2.60;99.90;;;;;;5063816;28;20365;-76
2021/12/14 03:23:35;;;;;;;;;;;2.60;99.90;;;;;;5057788;28;19916;-76
2021/12/14 03:26:02;;;;;;;;;;;2.50;99.90;;;;;;5057079;28;19912;-76
2021/12/14 03:28:29;;;;;;;;;;;2.50;99.90;;;;;;5055868;28;19915;-76
2021/12/14 03:31:02;;;;;;;;;;;2.40;99.90;;;;;;5057347;28;20422;-76
2021/12/14 03:33:30;;;;;;;;;;;2.30;99.90;;;;;;5057352;28;20276;-76
2021/12/14 03:35:56;;;;;;;;;;;2.20;99.90;;;;;;5057391;28;19909;-76
2021/12/14 03:38:23;;;;;;;;;;;2.20;99.90;;;;;;5057444;28;20292;-76
2021/12/14 03:40:54;;;;;;;;;;;2.10;99.90;;;;;;5057004;28;20365;-76
2021/12/14 03:43:20;;;;;;;;;;;2.00;99.90;;;;;;5060420;28;19908;-76
2021/12/14 03:45:45;;;;;;;;;;;2.00;99.90;;;;;;5061025;28;19923;-76
2021/12/14 03:48:11;;;;;;;;;;;1.90;99.90;;;;;;5057398;28;19916;-76
2021/12/14 03:50:41;;;;;;;;;;;1.80;99.90;;;;;;5057257;28;19909;-76
2021/12/14 03:53:11;;;;;;;;;;;1.80;99.90;;;;;;5057376;28;19958;-76
2021/12/14 03:55:46;;;;;;;;;;;1.70;99.90;;;;;;5056725;28;19908;-76
2021/12/14 03:58:13;;;;;;;;;;;1.70;99.90;;;;;;5055966;28;19909;-76
2021/12/14 04:00:41;;;;;;;;;;;1.70;99.90;;;;;;5056988;28;19920;-76
2021/12/14 04:03:11;;;;;;;;;;;1.70;99.90;;;;;;5057231;28;19909;-76
2021/12/14 04:05:41;;;;;;;;;;;1.70;99.90;;;;;;5057067;28;20365;-76
2021/12/14 04:08:06;;;;;;;;;;;1.60;99.90;;;;;;5055768;28;19909;-76
2021/12/14 04:10:33;;;;;;;;;;;1.60;99.90;;;;;;5056575;28;20000;-76
2021/12/14 04:12:59;;;;;;;;;;;1.70;99.90;;;;;;5070741;28;19912;-76
2021/12/14 04:15:25;;;;;;;;;;;1.70;99.90;;;;;;5077290;28;19915;-76
2021/12/14 04:17:51;;;;;;;;;;;1.70;99.90;;;;;;5077079;28;19920;-76
2021/12/14 04:20:21;;;;;;;;;;;1.70;99.90;;;;;;5069389;28;20011;-76
2021/12/14 04:22:48;;;;;;;;;;;1.70;99.90;;;;;;5056630;28;19947;-77
2021/12/14 04:25:16;;;;;;;;;;;1.70;99.90;;;;;;5076933;28;20027;-76
2021/12/14 04:27:43;;;;;;;;;;;1.70;99.90;;;;;;5076882;28;19909;-76
2021/12/14 04:30:10;;;;;;;;;;;1.80;99.90;;;;;;5077206;28;19954;-76
2021/12/14 04:32:36;;;;;;;;;;;1.80;99.90;;;;;;5076791;28;20380;-76
2021/12/14 04:35:03;;;;;;;;;;;1.80;99.90;;;;;;5077094;28;19909;-76
2021/12/14 04:37:29;;;;;;;;;;;1.70;99.90;;;;;;5077078;28;20263;-76
2021/12/14 04:51:55;;;;;;;;;;;1.80;99.90;;;;;;5076968;28;19919;-76
2021/12/14 04:53:45;;;;;;;;;;;1.70;99.90;;;;;;5079970;28;19932;-76
2021/12/14 04:56:13;;;;;;;;;;;1.70;99.90;;;;;;5080020;28;19954;-77
2021/12/14 04:58:42;;;;;;;;;;;1.70;99.90;;;;;;5080158;28;20376;-77
2021/12/14 05:01:08;;;;;;;;;;;1.70;99.90;;;;;;5080140;28;19935;-76
2021/12/14 05:03:36;;;;;;;;;;;1.80;99.90;;;;;;5080034;28;20399;-76
2021/12/14 05:06:13;;;;;;;;;;;1.70;99.90;;;;;;5078802;28;20363;-76
2021/12/14 05:11:10;;;;;;;;;;;1.80;99.90;;;;;;5080021;28;19961;-76
2021/12/14 05:13:38;;;;;;;;;;;1.70;99.90;;;;;;5079770;28;19909;-76
2021/12/14 05:16:04;;;;;;;;;;;1.70;99.90;;;;;;5079961;28;19909;-77
2021/12/14 05:18:30;;;;;;;;;;;1.70;99.90;;;;;;5074115;28;19970;-76
2021/12/14 05:20:58;;;;;;;;;;;1.70;99.90;;;;;;5066060;28;19913;-76
2021/12/14 05:23:29;;;;;;;;;;;1.60;99.90;;;;;;5059531;28;19916;-76
2021/12/14 05:25:55;;;;;;;;;;;1.50;99.90;;;;;;5059417;28;19912;-76
2021/12/14 05:28:21;;;;;;;;;;;1.50;99.90;;;;;;5059729;28;19962;-76
2021/12/14 05:30:49;;;;;;;;;;;1.50;99.90;;;;;;5058189;28;19913;-76
2021/12/14 05:33:20;;;;;;;;;;;1.40;99.90;;;;;;5059605;28;19931;-77
2021/12/14 05:35:47;;;;;;;;;;;1.40;99.90;;;;;;5072209;28;19909;-76
2021/12/14 05:38:20;;;;;;;;;;;1.40;99.90;;;;;;5079020;28;19908;-76
2021/12/14 05:43:20;;;;;;;;;;;1.30;99.90;;;;;;5079710;28;20398;-76
2021/12/14 05:45:47;;;;;;;;;;;1.30;99.90;;;;;;5077790;28;19909;-76
2021/12/14 05:48:21;;;;;;;;;;;1.30;99.90;;;;;;5069024;28;19915;-76
2021/12/14 05:50:50;;;;;;;;;;;1.20;99.90;;;;;;5058718;28;19909;-76
2021/12/14 05:53:18;;;;;;;;;;;1.20;99.90;;;;;;5059291;28;19909;-76
2021/12/14 05:55:44;;;;;;;;;;;1.20;99.90;;;;;;5057201;28;19954;-76
2021/12/14 05:58:12;;;;;;;;;;;1.20;99.90;;;;;;5058984;28;19909;-76
2021/12/14 06:00:43;;;;;;;;;;;1.10;99.90;;;;;;5091163;28;19913;-76
2021/12/14 06:03:12;;;;;;;;;;;1.10;99.90;;;;;;5088309;28;19908;-76
2021/12/14 06:05:38;;;;;;;;;;;1.10;99.90;;;;;;5081356;28;19915;-76
2021/12/14 06:08:04;;;;;;;;;;;1.10;99.90;;;;;;5084630;28;19909;-76
2021/12/14 06:10:30;;;;;;;;;;;1.10;99.90;;;;;;5091073;28;20407;-76
2021/12/14 06:12:56;;;;;;;;;;;1.00;99.90;;;;;;5089247;28;19915;-76
2021/12/14 06:15:27;;;;;;;;;;;1.00;99.90;;;;;;5075857;28;20313;-76
2021/12/14 06:17:52;;;;;;;;;;;1.00;99.90;;;;;;5088624;28;19908;-76
2021/12/14 06:20:20;;;;;;;;;;;0.90;99.90;;;;;;5079690;28;20018;-76
2021/12/14 06:28:01;;;;;;;;;;;0.90;99.90;;;;;;5026404;28;19968;-77
2021/12/14 06:30:29;;;;;;;;;;;0.90;99.90;;;;;;5030149;28;19921;-77
2021/12/14 06:32:59;;;;;;;;;;;0.90;99.90;;;;;;5022924;28;20487;-77
2021/12/14 06:35:27;;;;;;;;;;;0.90;99.90;;;;;;5036179;28;19914;-77
2021/12/14 06:40:40;;;;;;;;;;;0.90;99.90;;;;;;5027675;28;19927;-77
2021/12/14 06:43:08;;;;;;;;;;;0.90;99.90;;;;;;5037725;28;19913;-76
2021/12/14 06:45:57;;;;;;;;;;;0.90;99.90;;;;;;5037856;28;19996;-76
2021/12/14 06:48:27;;;;;;;;;;;1.00;99.90;;;;;;5029473;28;19960;-77
2021/12/14 06:50:55;;;;;;;;;;;1.00;99.90;;;;;;5017041;28;20008;-77
2021/12/14 06:53:22;;;;;;;;;;;1.00;99.90;;;;;;5018406;28;19910;-77
2021/12/14 06:55:52;;;;;;;;;;;1.00;99.90;;;;;;5000611;28;20395;-77
2021/12/14 06:58:20;;;;;;;;;;;1.00;99.90;;;;;;5020859;28;19914;-77
2021/12/14 07:00:48;;;;;;;;;;;1.00;99.90;;;;;;5016717;28;19920;-77
2021/12/14 07:03:13;;;;;;;;;;;1.10;99.90;;;;;;5034476;28;19913;-77
2021/12/14 07:05:40;;;;;;;;;;;1.10;99.90;;;;;;5024277;28;20364;-77
2021/12/14 07:08:11;;;;;;;;;;;1.10;99.90;;;;;;5037926;28;19909;-77
2021/12/14 07:10:37;;;;;;;;;;;1.10;99.90;;;;;;5036500;28;19909;-77
2021/12/14 07:13:11;;;;;;;;;;;1.10;99.90;;;;;;5037312;28;19948;-77
2021/12/14 07:15:36;;;;;;;;;;;1.10;99.90;;;;;;5037326;28;19916;-77
2021/12/14 07:18:04;;;;;;;;;;;1.10;99.90;;;;;;5035567;28;20003;-77
2021/12/14 07:20:36;;;;;;;;;;;1.10;99.90;;;;;;5037661;28;19924;-78
2021/12/14 07:23:14;;;;;;;;;;;1.10;99.90;;;;;;5035898;28;20135;-77
2021/12/14 07:25:40;;;;;;;;;;;1.10;99.90;;;;;;5037713;28;19921;-78
2021/12/14 07:28:11;;;;;;;;;;;1.10;99.90;;;;;;5027657;28;20360;-77
2021/12/14 07:30:36;;;;;;;;;;;1.00;99.90;;;;;;5027158;28;19963;-77
2021/12/14 07:33:05;;;;;;;;;;;1.00;99.90;;;;;;5030187;28;19909;-77
2021/12/14 07:35:31;;;;;;;;;;;0.90;99.90;;;;;;5036913;28;19988;-77
2021/12/14 07:37:59;;;;;;;;;;;0.90;99.90;;;;;;5023961;28;19913;-77
2021/12/14 07:40:32;;;;;;;;;;;0.80;99.90;;;;;;5017676;28;19960;-77
2021/12/14 07:43:06;;;;;;;;;;;0.90;99.90;;;;;;5021467;28;19964;-77
2021/12/14 07:45:31;;;;;;;;;;;0.90;99.90;;;;;;5018178;28;19948;-77
2021/12/14 07:47:57;;;;;;;;;;;0.90;99.90;;;;;;5036044;28;20384;-77
2021/12/14 07:50:35;;;;;;;;;;;0.90;99.90;;;;;;5037238;28;19917;-77
2021/12/14 07:53:01;;;;;;;;;;;0.90;99.90;;;;;;5032566;28;20000;-77
2021/12/14 07:55:28;;;;;;;;;;;0.90;99.90;;;;;;5027610;28;19968;-77
2021/12/14 07:57:54;;;;;;;;;;;1.00;99.90;;;;;;5023306;28;19910;-77
2021/12/14 08:00:24;;;;;;;;;;;1.00;99.90;;;;;;5018118;28;19964;-77
2021/12/14 08:02:54;;;;;;;;;;;1.10;99.90;;;;;;5029778;28;20476;-77
2021/12/14 08:05:28;;;;;;;;;;;1.20;99.90;;;;;;5017405;28;19917;-77
2021/12/14 08:07:57;;;;;;;;;;;1.20;99.90;;;;;;5019523;28;19913;-77
2021/12/14 08:10:27;;;;;;;;;;;1.20;99.90;;;;;;5017385;28;20407;-77
2021/12/14 08:13:13;;;;;;;;;;;1.20;99.90;;;;;;5030941;28;19917;-80
2021/12/14 08:15:41;;;;;;;;;;;1.30;99.90;;;;;;5020559;28;19916;-79
2021/12/14 08:18:15;;;;;;;;;;;1.30;99.90;;;;;;5030771;28;19979;-80
2021/12/14 08:20:44;;;;;;;;;;;1.30;99.90;;;;;;5025588;28;19921;-80
2021/12/14 08:23:22;;;;;;;;;;;1.40;99.90;;;;;;5027841;28;20305;-79
2021/12/14 08:25:48;;;;;;;;;;;1.40;99.90;;;;;;5027180;28;19925;-81
2021/12/14 08:28:14;;;;;;;;;;;1.50;99.90;;;;;;5025173;28;20311;-79
2021/12/14 08:30:43;;;;;;;;;;;1.50;99.90;;;;;;5029088;28;20003;-75
2021/12/14 08:33:23;;;;;;;;;;;1.60;99.90;;;;;;5028697;28;19963;-76
2021/12/14 08:35:49;;;;;;;;;;;1.60;99.90;;;;;;5020953;28;19909;-76
2021/12/14 08:38:17;;;;;;;;;;;1.70;99.90;;;;;;5022255;28;19910;-75
2021/12/14 08:40:47;;;;;;;;;;;1.70;99.90;;;;;;5027605;28;19929;-77
2021/12/14 08:43:22;;;;;;;;;;;1.70;99.90;;;;;;5007212;28;19917;-76
2021/12/14 08:45:51;;;;;;;;;;;1.70;99.90;;;;;;5018412;28;20594;-76
2021/12/14 08:48:31;;;;;;;;;;;1.70;99.90;;;;;;5027047;28;19909;-77
2021/12/14 08:50:58;;;;;;;;;;;1.80;99.90;;;;;;5020941;28;19940;-84
2021/12/14 08:53:35;;;;;;;;;;;1.90;99.90;;;;;;5039898;28;19963;-76
2021/12/14 08:56:03;;;;;;;;;;;2.00;99.90;;;;;;5022087;28;19920;-77
2021/12/14 08:58:29;;;;;;;;;;;2.10;99.90;;;;;;5021932;28;20388;-76
2021/12/14 09:00:57;;;;;;;;;;;2.10;99.90;;;;;;5031742;28;19957;-76
2021/12/14 09:03:31;;;;;;;;;;;2.20;99.90;;;;;;5031891;28;19948;-76
2021/12/14 09:05:58;;;;;;;;;;;2.20;99.90;;;;;;5026191;28;19909;-76
2021/12/14 09:08:23;;;;;;;;;;;2.30;99.90;;;;;;5040025;28;19917;-76
2021/12/14 09:10:51;;;;;;;;;;;2.30;99.90;;;;;;5026526;28;20368;-76
2021/12/14 09:13:17;;;;;;;;;;;2.30;99.90;;;;;;5039612;28;19962;-76
2021/12/14 09:15:42;;;;;;;;;;;2.40;99.90;;;;;;5039986;28;19996;-76
2021/12/14 09:18:08;;;;;;;;;;;2.50;99.90;;;;;;5024157;28;19913;-76
2021/12/14 09:20:37;;;;;;;;;;;2.50;99.90;;;;;;5019904;28;20004;-76
2021/12/14 09:23:05;;;;;;;;;;;2.60;99.90;;;;;;5029768;28;19909;-76
2021/12/14 09:25:31;;;;;;;;;;;2.70;99.90;;;;;;5031541;28;19909;-76
2021/12/14 09:27:58;;;;;;;;;;;2.60;99.90;;;;;;5019837;28;19941;-76
2021/12/14 09:30:26;;;;;;;;;;;2.60;99.90;;;;;;5032216;28;19915;-76
2021/12/14 09:32:52;;;;;;;;;;;2.70;99.90;;;;;;5019723;28;20004;-76
2021/12/14 09:35:19;;;;;;;;;;;2.80;99.90;;;;;;5020344;28;19989;-76
2021/12/14 09:37:47;;;;;;;;;;;2.80;99.90;;;;;;5034061;28;19921;-76
2021/12/14 09:40:16;;;;;;;;;;;2.80;99.90;;;;;;5019771;28;19918;-76
2021/12/14 09:42:42;;;;;;;;;;;2.80;99.90;;;;;;5025807;28;19960;-76
2021/12/14 09:45:10;;;;;;;;;;;2.90;99.90;;;;;;5039298;28;20328;-76
2021/12/14 09:47:36;;;;;;;;;;;2.90;99.90;;;;;;5039319;28;19949;-76
2021/12/14 09:50:05;;;;;;;;;;;2.90;99.90;;;;;;5021626;28;19958;-76
2021/12/14 09:52:32;;;;;;;;;;;3.00;99.90;;;;;;5039460;28;19924;-76
2021/12/14 09:54:59;;;;;;;;;;;3.10;99.90;;;;;;5008518;28;19913;-76
2021/12/14 09:57:27;;;;;;;;;;;3.20;99.90;;;;;;5025218;28;19916;-76
2021/12/14 09:59:55;;;;;;;;;;;3.20;99.90;;;;;;5028702;28;19953;-76
2021/12/14 10:02:31;;;;;;;;;;;3.30;99.90;;;;;;5019285;28;19920;-76
2021/12/14 10:04:59;;;;;;;;;;;3.30;99.90;;;;;;5021302;28;20059;-76
2021/12/14 10:07:25;;;;;;;;;;;3.20;99.90;;;;;;5001309;28;19909;-76
2021/12/14 10:09:52;;;;;;;;;;;3.40;99.90;;;;;;5019177;28;20427;-76
2021/12/14 10:14:50;;;;;;;;;;;3.50;99.90;;;;;;5019132;28;19941;-76
2021/12/14 10:17:18;;;;;;;;;;;3.50;99.90;;;;;;5031963;28;20328;-76
2021/12/14 10:19:44;;;;;;;;;;;3.60;99.90;;;;;;5005683;28;19920;-76
2021/12/14 10:22:31;;;;;;;;;;;3.60;99.90;;;;;;5022464;28;19975;-76
2021/12/14 10:24:58;;;;;;;;;;;3.80;99.90;;;;;;5000835;28;19993;-76
2021/12/14 10:27:25;;;;;;;;;;;3.80;99.90;;;;;;5018076;28;19917;-75
2021/12/14 10:29:54;;;;;;;;;;;4.00;99.90;;;;;;5018379;28;19913;-76
2021/12/14 10:32:21;;;;;;;;;;;4.10;99.90;;;;;;5019091;28;19941;-76
2021/12/14 10:34:49;;;;;;;;;;;4.10;99.90;;;;;;5019307;28;20369;-76
2021/12/14 10:37:56;;;;;;;;;;;4.20;99.90;;;;;;5019731;28;20388;-76
2021/12/14 10:43:19;;;;;;;;;;;4.40;99.90;;;;;;5022513;28;19936;-76
2021/12/14 10:45:48;;;;;;;;;;;4.50;99.90;;;;;;5024959;28;19916;-76
2021/12/14 10:48:14;;;;;;;;;;;4.50;99.90;;;;;;5029333;28;19916;-76
2021/12/14 10:50:40;;;;;;;;;;;4.60;99.90;;;;;;5007154;28;19914;-76
2021/12/14 10:53:08;;;;;;;;;;;4.70;99.90;;;;;;5020265;28;20379;-76
2021/12/14 10:55:37;;;;;;;;;;;4.70;99.90;;;;;;5038002;28;19916;-76
2021/12/14 10:58:04;;;;;;;;;;;4.80;99.90;;;;;;5037950;28;19909;-76
2021/12/14 11:00:33;;;;;;;;;;;4.80;99.90;;;;;;5022338;28;19917;-76
2021/12/14 11:03:06;;;;;;;;;;;4.80;99.90;;;;;;5018245;28;19968;-76
2021/12/14 11:05:33;;;;;;;;;;;4.90;99.90;;;;;;5018053;28;19913;-75
2021/12/14 11:07:59;;;;;;;;;;;5.00;99.90;;;;;;5019188;28;19913;-75
2021/12/14 11:10:30;;;;;;;;;;;5.10;99.90;;;;;;5017154;28;20268;-75
2021/12/14 11:12:58;;;;;;;;;;;5.20;99.90;;;;;;5037508;28;20363;-75
2021/12/14 11:15:26;;;;;;;;;;;5.30;99.90;;;;;;5037759;28;19909;-75
2021/12/14 11:18:09;;;;;;;;;;;5.30;99.90;;;;;;5027406;28;19916;-76
2021/12/14 11:20:43;;;;;;;;;;;5.40;99.90;;;;;;5031227;28;19921;-77
2021/12/14 11:23:13;;;;;;;;;;;5.50;99.90;;;;;;5035995;28;20398;-75
2021/12/14 11:25:44;;;;;;;;;;;5.60;99.90;;;;;;5037728;28;19990;-75
2021/12/14 11:28:13;;;;;;;;;;;5.60;99.90;;;;;;5023314;28;19925;-83
2021/12/14 11:30:46;;;;;;;;;;;5.80;99.90;;;;;;5028045;28;19910;-76
2021/12/14 11:33:12;;;;;;;;;;;5.90;99.90;;;;;;5017745;28;19909;-75
2021/12/14 11:35:47;;;;;;;;;;;6.00;99.90;;;;;;5019303;28;19955;-76
2021/12/14 11:38:28;;;;;;;;;;;6.00;99.90;;;;;;5017704;28;20304;-76
2021/12/14 11:40:53;;;;;;;;;;;6.10;99.90;;;;;;5017296;28;19940;-76
2021/12/14 11:43:21;;;;;;;;;;;6.20;99.90;;;;;;5017794;28;20262;-76
2021/12/14 11:45:48;;;;;;;;;;;6.30;99.90;;;;;;5016437;28;20316;-76
2021/12/14 11:48:14;;;;;;;;;;;6.40;99.90;;;;;;5000947;28;20285;-76
2021/12/14 11:50:48;;;;;;;;;;;6.50;99.90;;;;;;5021632;28;20353;-76
2021/12/14 11:53:16;;;;;;;;;;;6.70;99.90;;;;;;5021936;28;19917;-76
2021/12/14 11:55:44;;;;;;;;;;;6.70;99.90;;;;;;5024283;28;19975;-76
2021/12/14 11:58:13;;;;;;;;;;;6.80;99.90;;;;;;5031716;28;19913;-76
2021/12/14 12:00:40;;;;;;;;;;;6.80;99.90;;;;;;5003748;28;20003;-76
2021/12/14 12:03:27;;;;;;;;;;;6.90;99.90;;;;;;5007610;28;19952;-75
2021/12/14 12:06:07;;;;;;;;;;;7.00;99.90;;;;;;5004612;28;19910;-75
2021/12/14 12:11:19;;;;;;;;;;;7.20;99.90;;;;;;5021588;28;19916;-75
2021/12/14 12:13:45;;;;;;;;;;;7.40;99.90;;;;;;5021397;28;19910;-75
2021/12/14 12:16:23;;;;;;;;;;;7.40;99.90;;;;;;5021554;28;19909;-75
2021/12/14 12:19:02;;;;;;;;;;;7.50;99.90;;;;;;5021373;28;19936;-75
2021/12/14 12:21:28;;;;;;;;;;;7.60;99.90;;;;;;5003396;28;19945;-75
2021/12/14 12:23:54;;;;;;;;;;;7.70;99.90;;;;;;5025718;28;20012;-75
2021/12/14 12:26:20;;;;;;;;;;;7.80;99.90;;;;;;5022682;28;19960;-75
2021/12/14 12:28:47;;;;;;;;;;;7.90;99.90;;;;;;5028071;28;19921;-75
2021/12/14 12:31:19;;;;;;;;;;;8.00;99.90;;;;;;5026883;28;19916;-75
2021/12/14 12:33:55;;;;;;;;;;;8.00;99.90;;;;;;5029186;28;19970;-76
2021/12/14 12:36:23;;;;;;;;;;;8.10;99.90;;;;;;5036782;28;19917;-76
2021/12/14 12:38:50;;;;;;;;;;;8.10;99.90;;;;;;5021070;28;19953;-76
2021/12/14 12:41:24;;;;;;;;;;;8.10;99.90;;;;;;5020390;28;19924;-76
2021/12/14 12:43:57;;;;;;;;;;;8.20;99.90;;;;;;5020873;28;19996;-76
2021/12/14 12:46:25;;;;;;;;;;;8.20;99.90;;;;;;5007030;28;19922;-77
2021/12/14 12:48:50;;;;;;;;;;;8.30;99.90;;;;;;5003178;28;20024;-76
2021/12/14 12:51:35;;;;;;;;;;;8.40;99.90;;;;;;5031234;28;19956;-77
2021/12/14 12:54:15;;;;;;;;;;;8.40;99.90;;;;;;5020509;28;19914;-77
2021/12/14 12:56:42;;;;;;;;;;;8.60;99.90;;;;;;5020299;28;19933;-76
2021/12/14 12:59:09;;;;;;;;;;;8.60;99.90;;;;;;5025336;28;19913;-76
2021/12/14 13:01:35;;;;;;;;;;;8.70;99.90;;;;;;5019381;28;20012;-77
2021/12/14 13:04:01;;;;;;;;;;;8.60;99.90;;;;;;5030216;28;19921;-76
2021/12/14 13:06:27;;;;;;;;;;;8.70;99.90;;;;;;5034811;28;20004;-75
2021/12/14 13:08:57;;;;;;;;;;;8.80;99.90;;;;;;5022533;28;19913;-76
2021/12/14 13:11:35;;;;;;;;;;;8.80;99.90;;;;;;5012596;28;19920;-76
2021/12/14 13:14:11;;;;;;;;;;;8.90;99.90;;;;;;5035634;28;19909;-76
2021/12/14 13:16:38;;;;;;;;;;;9.00;99.90;;;;;;5025068;28;19963;-76
2021/12/14 13:19:10;;;;;;;;;;;9.00;99.90;;;;;;5020115;28;19909;-76
2021/12/14 13:21:38;;;;;;;;;;;9.10;99.90;;;;;;5019647;28;19914;-76
2021/12/14 13:24:22;;;;;;;;;;;9.20;99.90;;;;;;5025674;28;19993;-75
2021/12/14 13:26:57;;;;;;;;;;;9.30;99.90;;;;;;5038280;28;19909;-76
2021/12/14 13:29:28;;;;;;;;;;;9.40;99.90;;;;;;5039616;28;19974;-75
2021/12/14 13:31:56;;;;;;;;;;;9.40;99.90;;;;;;5020185;28;20593;-76
2021/12/14 13:34:48;;;;;;;;;;;9.30;99.90;;;;;;5020022;28;19914;-76
2021/12/14 13:37:16;;;;;;;;;;;9.20;99.90;;;;;;4981999;28;19909;-76
2021/12/14 13:39:41;;;;;;;;;;;9.10;99.90;;;;;;5002077;28;19909;-76
2021/12/14 13:42:16;;;;;;;;;;;9.10;99.90;;;;;;5019306;28;19924;-76
2021/12/14 13:44:44;;;;;;;;;;;9.10;99.90;;;;;;5019493;28;19956;-76
2021/12/14 13:47:11;;;;;;;;;;;9.20;99.90;;;;;;5019640;28;19909;-76
2021/12/14 13:49:38;;;;;;;;;;;9.30;99.90;;;;;;5019425;28;20377;-76
2021/12/14 13:52:05;;;;;;;;;;;9.40;99.90;;;;;;5019650;28;19913;-76
2021/12/14 13:54:51;;;;;;;;;;;9.30;99.90;;;;;;5019104;28;19909;-76
2021/12/14 13:57:16;;;;;;;;;;;9.20;99.90;;;;;;5018856;28;19910;-76
2021/12/14 13:59:42;;;;;;;;;;;9.10;99.90;;;;;;5001795;28;20273;-76
2021/12/14 14:02:07;;;;;;;;;;;9.10;99.90;;;;;;5019509;28;20357;-76
2021/12/14 14:04:34;;;;;;;;;;;9.00;99.90;;;;;;5019584;28;20000;-76
2021/12/14 14:07:00;;;;;;;;;;;9.00;99.90;;;;;;5002569;28;19909;-76
2021/12/14 14:09:27;;;;;;;;;;;8.90;99.90;;;;;;5030633;28;20296;-76
2021/12/14 14:12:20;;;;;;;;;;;9.00;99.90;;;;;;5017227;28;19909;-76
2021/12/14 14:14:46;;;;;;;;;;;8.90;99.90;;;;;;4997492;28;19910;-74
2021/12/14 14:17:12;;;;;;;;;;;8.80;99.90;;;;;;5018838;28;20285;-75
2021/12/14 14:19:42;;;;;;;;;;;8.70;99.90;;;;;;5019139;28;19910;-75
2021/12/14 14:22:10;;;;;;;;;;;8.70;99.90;;;;;;5030315;28;19960;-76
2021/12/14 14:24:37;;;;;;;;;;;8.70;99.90;;;;;;5020910;28;19948;-76
2021/12/14 14:27:04;;;;;;;;;;;8.70;99.90;;;;;;5037852;28;20341;-75
2021/12/14 14:29:45;;;;;;;;;;;8.70;99.90;;;;;;5037817;28;20427;-78
2021/12/14 14:32:29;;;;;;;;;;;8.80;99.90;;;;;;5025148;28;19917;-76
2021/12/14 14:34:56;;;;;;;;;;;8.70;99.90;;;;;;5005994;28;19920;-77
2021/12/14 14:37:27;;;;;;;;;;;8.70;99.90;;;;;;5019347;28;19935;-78
2021/12/14 14:39:55;;;;;;;;;;;8.70;99.90;;;;;;5018010;28;19913;-78
2021/12/14 14:42:22;;;;;;;;;;;8.60;99.90;;;;;;5032765;28;19917;-76
2021/12/14 14:44:49;;;;;;;;;;;8.60;99.90;;;;;;5024514;28;19913;-76
2021/12/14 14:47:25;;;;;;;;;;;8.60;99.90;;;;;;5029075;28;19913;-77
2021/12/14 14:49:55;;;;;;;;;;;8.60;99.90;;;;;;5032893;28;20419;-77
2021/12/14 14:52:23;;;;;;;;;;;8.60;99.90;;;;;;5023800;28;19917;-76
2021/12/14 14:54:48;;;;;;;;;;;8.60;99.90;;;;;;5000703;28;19944;-76
2021/12/14 14:57:14;;;;;;;;;;;8.60;99.90;;;;;;5017931;28;20443;-76
2021/12/14 14:59:42;;;;;;;;;;;8.60;99.90;;;;;;5018405;28;19913;-76
2021/12/14 15:02:09;;;;;;;;;;;8.70;99.90;;;;;;5021005;28;19964;-77
2021/12/14 15:04:53;;;;;;;;;;;8.60;99.90;;;;;;5025729;28;20369;-77
2021/12/14 15:07:19;;;;;;;;;;;8.70;99.90;;;;;;5037803;28;19909;-76
2021/12/14 15:09:46;;;;;;;;;;;8.60;99.90;;;;;;5037842;28;20000;-76
2021/12/14 15:12:18;;;;;;;;;;;8.60;99.90;;;;;;5035574;28;19917;-76
2021/12/14 15:14:43;;;;;;;;;;;8.60;99.90;;;;;;5026489;28;20012;-76
2021/12/14 15:17:17;;;;;;;;;;;8.60;99.90;;;;;;5030306;28;20001;-76
2021/12/14 15:19:44;;;;;;;;;;;8.60;99.90;;;;;;5033071;28;19916;-76
2021/12/14 15:22:11;;;;;;;;;;;8.60;99.90;;;;;;5029846;28;19913;-76
2021/12/14 15:24:43;;;;;;;;;;;8.60;99.90;;;;;;5026425;28;19910;-76
2021/12/14 15:27:08;;;;;;;;;;;8.60;99.90;;;;;;5023707;28;20376;-76
2021/12/14 15:29:35;;;;;;;;;;;8.60;99.90;;;;;;5035293;28;19936;-73